sensor_id;sensor_type;location;lat;lon;timestamp;pressure;altitude;pressure_sealevel;temperature;humidity
75438;BME280;64015;49.392;15.582;2023-03-19T00:01:48;95638.91;;;0.56;74.81
75438;BME280;64015;49.392;15.582;2023-03-19T00:04:14;95627.59;;;0.44;75.13
75438;BME280;64015;49.392;15.582;2023-03-19T00:06:42;95631.44;;;0.28;75.43
75438;BME280;64015;49.392;15.582;2023-03-19T00:09:08;95633.03;;;0.29;76.44
75438;BME280;64015;49.392;15.582;2023-03-19T00:11:33;95642.47;;;0.17;76.47
75438;BME280;64015;49.392;15.582;2023-03-19T00:13:59;95646.03;;;0.23;76.50
75438;BME280;64015;49.392;15.582;2023-03-19T00:16:26;95645.81;;;0.31;76.44
75438;BME280;64015;49.392;15.582;2023-03-19T00:18:52;95651.78;;;0.31;76.12
75438;BME280;64015;49.392;15.582;2023-03-19T00:21:18;95653.09;;;0.03;77.17
75438;BME280;64015;49.392;15.582;2023-03-19T00:23:44;95657.53;;;-0.11;76.76
75438;BME280;64015;49.392;15.582;2023-03-19T00:26:09;95650.53;;;-0.04;76.54
75438;BME280;64015;49.392;15.582;2023-03-19T00:28:36;95661.41;;;0.24;77.46
75438;BME280;64015;49.392;15.582;2023-03-19T00:31:08;95660.59;;;0.24;76.60
75438;BME280;64015;49.392;15.582;2023-03-19T00:33:36;95664.59;;;0.20;76.12
75438;BME280;64015;49.392;15.582;2023-03-19T00:36:02;95649.91;;;0.07;75.77
75438;BME280;64015;49.392;15.582;2023-03-19T00:38:28;95662.22;;;0.12;76.26
75438;BME280;64015;49.392;15.582;2023-03-19T00:40:54;95663.66;;;0.01;77.10
75438;BME280;64015;49.392;15.582;2023-03-19T00:43:20;95675.88;;;-0.19;76.94
75438;BME280;64015;49.392;15.582;2023-03-19T00:45:45;95676.81;;;0.06;75.99
75438;BME280;64015;49.392;15.582;2023-03-19T00:48:11;95665.19;;;0.22;76.11
75438;BME280;64015;49.392;15.582;2023-03-19T00:50:37;95666.00;;;0.22;76.46
75438;BME280;64015;49.392;15.582;2023-03-19T00:53:03;95663.84;;;0.13;77.12
75438;BME280;64015;49.392;15.582;2023-03-19T00:55:29;95665.06;;;0.04;77.98
75438;BME280;64015;49.392;15.582;2023-03-19T00:57:54;95663.66;;;0.01;77.09
75438;BME280;64015;49.392;15.582;2023-03-19T01:00:20;95648.31;;;-0.07;77.61
75438;BME280;64015;49.392;15.582;2023-03-19T01:02:47;95663.31;;;-0.16;78.21
75438;BME280;64015;49.392;15.582;2023-03-19T01:05:12;95657.53;;;-0.18;79.19
75438;BME280;64015;49.392;15.582;2023-03-19T01:07:38;95652.75;;;-0.27;79.08
75438;BME280;64015;49.392;15.582;2023-03-19T01:10:04;95659.38;;;-0.38;79.74
75438;BME280;64015;49.392;15.582;2023-03-19T01:12:31;95655.97;;;-0.45;80.07
75438;BME280;64015;49.392;15.582;2023-03-19T01:14:56;95654.38;;;-0.40;79.66
75438;BME280;64015;49.392;15.582;2023-03-19T01:17:22;95648.41;;;-0.40;80.09
75438;BME280;64015;49.392;15.582;2023-03-19T01:19:48;95652.97;;;-0.42;80.04
75438;BME280;64015;49.392;15.582;2023-03-19T01:22:14;95647.19;;;-0.44;80.52
75438;BME280;64015;49.392;15.582;2023-03-19T01:24:41;95649.59;;;-0.49;80.25
75438;BME280;64015;49.392;15.582;2023-03-19T01:27:07;95638.22;;;-0.42;80.68
75438;BME280;64015;49.392;15.582;2023-03-19T01:29:33;95640.41;;;-0.45;79.89
75438;BME280;64015;49.392;15.582;2023-03-19T01:32:00;95629.88;;;-0.50;80.74
75438;BME280;64015;49.392;15.582;2023-03-19T01:34:25;95633.06;;;-0.55;80.70
75438;BME280;64015;49.392;15.582;2023-03-19T01:36:51;95628.50;;;-0.59;81.17
75438;BME280;64015;49.392;15.582;2023-03-19T01:39:17;95623.69;;;-0.62;81.60
75438;BME280;64015;49.392;15.582;2023-03-19T01:41:44;95630.88;;;-0.64;81.51
75438;BME280;64015;49.392;15.582;2023-03-19T01:44:36;95618.72;;;-0.64;81.23
75438;BME280;64015;49.392;15.582;2023-03-19T01:47:16;95620.16;;;-0.74;82.65
75438;BME280;64015;49.392;15.582;2023-03-19T01:49:49;95624.50;;;-0.68;81.74
75438;BME280;64015;49.392;15.582;2023-03-19T01:52:17;95627.91;;;-0.74;82.72
75438;BME280;64015;49.392;15.582;2023-03-19T01:54:43;95619.75;;;-0.78;82.25
75438;BME280;64015;49.392;15.582;2023-03-19T01:57:12;95620.91;;;-0.61;82.69
75438;BME280;64015;49.392;15.582;2023-03-19T01:59:49;95622.91;;;-0.63;82.12
75438;BME280;64015;49.392;15.582;2023-03-19T02:02:33;95619.50;;;-0.63;82.08
75438;BME280;64015;49.392;15.582;2023-03-19T02:05:06;95617.53;;;-0.61;81.37
75438;BME280;64015;49.392;15.582;2023-03-19T02:07:35;95608.16;;;-0.62;81.87
75438;BME280;64015;49.392;15.582;2023-03-19T02:10:09;95601.81;;;-0.66;82.33
75438;BME280;64015;49.392;15.582;2023-03-19T02:12:36;95606.97;;;-0.73;82.02
75438;BME280;64015;49.392;15.582;2023-03-19T02:15:06;95612.16;;;-0.80;82.08
75438;BME280;64015;49.392;15.582;2023-03-19T02:17:32;95612.97;;;-0.86;82.69
75438;BME280;64015;49.392;15.582;2023-03-19T02:20:06;95615.94;;;-0.82;82.36
75438;BME280;64015;49.392;15.582;2023-03-19T02:22:43;95615.75;;;-0.87;83.02
75438;BME280;64015;49.392;15.582;2023-03-19T02:28:09;95628.50;;;-0.79;82.77
75438;BME280;64015;49.392;15.582;2023-03-19T02:30:36;95637.25;;;-0.73;82.68
75438;BME280;64015;49.392;15.582;2023-03-19T02:33:03;95626.13;;;-0.67;81.60
75438;BME280;64015;49.392;15.582;2023-03-19T02:35:31;95630.88;;;-0.64;81.68
75438;BME280;64015;49.392;15.582;2023-03-19T02:37:59;95615.34;;;-0.71;81.30
75438;BME280;64015;49.392;15.582;2023-03-19T02:40:29;95623.53;;;-0.67;81.69
75438;BME280;64015;49.392;15.582;2023-03-19T02:42:57;95623.31;;;-0.72;81.86
75438;BME280;64015;49.392;15.582;2023-03-19T02:45:27;95616.53;;;-0.73;82.57
75438;BME280;64015;49.392;15.582;2023-03-19T02:47:57;95614.16;;;-0.75;81.81
75438;BME280;64015;49.392;15.582;2023-03-19T02:50:22;95613.75;;;-0.72;82.37
75438;BME280;64015;49.392;15.582;2023-03-19T02:52:49;95615.34;;;-0.71;82.40
75438;BME280;64015;49.392;15.582;2023-03-19T02:55:17;95612.56;;;-0.76;82.60
75438;BME280;64015;49.392;15.582;2023-03-19T02:57:44;95611.97;;;-0.78;82.77
75438;BME280;64015;49.392;15.582;2023-03-19T03:00:10;95612.75;;;-0.78;83.43
75438;BME280;64015;49.392;15.582;2023-03-19T03:02:36;95619.53;;;-0.77;82.14
75438;BME280;64015;49.392;15.582;2023-03-19T03:05:04;95620.34;;;-0.76;82.67
75438;BME280;64015;49.392;15.582;2023-03-19T03:07:31;95616.75;;;-0.68;82.63
75438;BME280;64015;49.392;15.582;2023-03-19T03:09:57;95616.13;;;-0.70;82.41
75438;BME280;64015;49.392;15.582;2023-03-19T03:12:23;95606.16;;;-0.73;82.79
75438;BME280;64015;49.392;15.582;2023-03-19T03:14:49;95614.38;;;-0.77;82.36
75438;BME280;64015;49.392;15.582;2023-03-19T03:17:15;95619.53;;;-0.77;83.75
75438;BME280;64015;49.392;15.582;2023-03-19T03:19:41;95615.97;;;-0.76;83.29
75438;BME280;64015;49.392;15.582;2023-03-19T03:22:07;95624.13;;;-0.65;83.21
75438;BME280;64015;49.392;15.582;2023-03-19T03:24:33;95620.72;;;-0.72;82.86
75438;BME280;64015;49.392;15.582;2023-03-19T03:26:59;95621.72;;;-0.67;82.87
75438;BME280;64015;49.392;15.582;2023-03-19T03:29:25;95616.13;;;-0.70;83.07
75438;BME280;64015;49.392;15.582;2023-03-19T03:31:51;95617.34;;;-0.80;83.20
75438;BME280;64015;49.392;15.582;2023-03-19T03:34:35;95620.31;;;-0.83;82.82
75438;BME280;64015;49.392;15.582;2023-03-19T03:37:01;95622.53;;;-0.86;83.37
75438;BME280;64015;49.392;15.582;2023-03-19T03:39:29;95629.88;;;-0.90;84.16
75438;BME280;64015;49.392;15.582;2023-03-19T03:41:55;95640.81;;;-1.01;84.73
75438;BME280;64015;49.392;15.582;2023-03-19T03:44:21;95644.41;;;-1.15;85.11
75438;BME280;64015;49.392;15.582;2023-03-19T03:46:47;95641.38;;;-1.38;86.71
75438;BME280;64015;49.392;15.582;2023-03-19T03:49:13;95644.00;;;-1.32;87.75
75438;BME280;64015;49.392;15.582;2023-03-19T03:51:39;95648.41;;;-1.06;85.67
75438;BME280;64015;49.392;15.582;2023-03-19T03:54:05;95648.78;;;-1.09;85.40
75438;BME280;64015;49.392;15.582;2023-03-19T03:56:32;95643.41;;;-1.14;86.29
75438;BME280;64015;49.392;15.582;2023-03-19T03:58:57;95647.00;;;-1.08;86.02
75438;BME280;64015;49.392;15.582;2023-03-19T04:01:23;95644.41;;;-1.08;85.68
75438;BME280;64015;49.392;15.582;2023-03-19T04:03:49;95637.06;;;-0.98;86.02
75438;BME280;64015;49.392;15.582;2023-03-19T04:06:20;95636.47;;;-0.94;85.63
75438;BME280;64015;49.392;15.582;2023-03-19T04:08:47;95634.84;;;-1.01;85.27
75438;BME280;64015;49.392;15.582;2023-03-19T04:11:13;95637.06;;;-1.05;86.31
75438;BME280;64015;49.392;15.582;2023-03-19T04:13:39;95642.84;;;-1.03;85.53
75438;BME280;64015;49.392;15.582;2023-03-19T04:16:07;95645.22;;;-1.08;85.76
75438;BME280;64015;49.392;15.582;2023-03-19T04:18:36;95641.63;;;-1.07;86.03
75438;BME280;64015;49.392;15.582;2023-03-19T04:21:03;95636.25;;;-0.99;86.01
75438;BME280;64015;49.392;15.582;2023-03-19T04:23:30;95636.25;;;-0.92;85.80
75438;BME280;64015;49.392;15.582;2023-03-19T04:26:00;95634.47;;;-0.92;85.08
75438;BME280;64015;49.392;15.582;2023-03-19T04:28:27;95642.22;;;-0.98;84.98
75438;BME280;64015;49.392;15.582;2023-03-19T04:31:04;95643.41;;;-1.01;84.85
75438;BME280;64015;49.392;15.582;2023-03-19T04:33:31;95638.47;;;-0.96;85.62
75438;BME280;64015;49.392;15.582;2023-03-19T04:35:57;95641.44;;;-0.86;84.78
75438;BME280;64015;49.392;15.582;2023-03-19T04:38:23;95638.25;;;-0.88;84.87
75438;BME280;64015;49.392;15.582;2023-03-19T04:40:54;95642.44;;;-0.87;84.42
75438;BME280;64015;49.392;15.582;2023-03-19T04:43:21;95640.25;;;-0.83;83.92
75438;BME280;64015;49.392;15.582;2023-03-19T04:45:48;95628.91;;;-0.89;84.76
75438;BME280;64015;49.392;15.582;2023-03-19T04:48:14;95632.88;;;-0.86;84.97
75438;BME280;64015;49.392;15.582;2023-03-19T04:50:40;95638.47;;;-0.96;84.99
75438;BME280;64015;49.392;15.582;2023-03-19T04:53:06;95643.00;;;-1.24;87.46
75438;BME280;64015;49.392;15.582;2023-03-19T04:55:33;95640.63;;;-1.06;86.66
75438;BME280;64015;49.392;15.582;2023-03-19T04:57:59;95636.66;;;-0.89;85.48
75438;BME280;64015;49.392;15.582;2023-03-19T05:00:26;95630.69;;;-0.89;85.74
75438;BME280;64015;49.392;15.582;2023-03-19T05:02:52;95635.88;;;-0.96;85.73
75438;BME280;64015;49.392;15.582;2023-03-19T05:05:18;95639.44;;;-0.97;85.40
75438;BME280;64015;49.392;15.582;2023-03-19T05:07:44;95640.06;;;-0.95;86.21
75438;BME280;64015;49.392;15.582;2023-03-19T05:10:10;95641.44;;;-0.86;86.21
75438;BME280;64015;49.392;15.582;2023-03-19T05:12:36;95632.09;;;-0.80;86.36
75438;BME280;64015;49.392;15.582;2023-03-19T05:15:03;95630.69;;;-0.69;86.64
75438;BME280;64015;49.392;15.582;2023-03-19T05:17:30;95627.31;;;-0.77;85.70
75438;BME280;64015;49.392;15.582;2023-03-19T05:19:56;95631.69;;;-0.70;85.93
75438;BME280;64015;49.392;15.582;2023-03-19T05:22:22;95634.47;;;-0.72;85.82
75438;BME280;64015;49.392;15.582;2023-03-19T05:24:48;95636.66;;;-0.62;85.52
75438;BME280;64015;49.392;15.582;2023-03-19T05:27:15;95642.03;;;-0.64;85.19
75438;BME280;64015;49.392;15.582;2023-03-19T05:29:41;95640.81;;;-0.55;86.50
75438;BME280;64015;49.392;15.582;2023-03-19T05:32:07;95638.63;;;-0.38;85.65
75438;BME280;64015;49.392;15.582;2023-03-19T05:34:33;95643.41;;;-0.42;89.65
75438;BME280;64015;49.392;15.582;2023-03-19T05:36:59;95646.75;;;-0.15;86.67
75438;BME280;64015;49.392;15.582;2023-03-19T05:39:25;95655.50;;;-0.03;87.67
75438;BME280;64015;49.392;15.582;2023-03-19T05:41:51;95660.66;;;0.04;87.07
75438;BME280;64015;49.392;15.582;2023-03-19T05:44:17;95666.03;;;0.16;88.03
75438;BME280;64015;49.392;15.582;2023-03-19T05:46:43;95669.00;;;0.26;86.99
75438;BME280;64015;49.392;15.582;2023-03-19T05:49:09;95656.97;;;0.31;87.57
75438;BME280;64015;49.392;15.582;2023-03-19T05:51:35;95654.16;;;0.46;87.35
75438;BME280;64015;49.392;15.582;2023-03-19T05:54:01;95663.25;;;0.62;84.91
75438;BME280;64015;49.392;15.582;2023-03-19T05:56:28;95659.75;;;0.81;81.70
75438;BME280;64015;49.392;15.582;2023-03-19T05:58:55;95659.31;;;0.84;80.81
75438;BME280;64015;49.392;15.582;2023-03-19T06:01:21;95657.75;;;0.83;81.77
75438;BME280;64015;49.392;15.582;2023-03-19T06:03:47;95662.69;;;0.91;81.42
75438;BME280;64015;49.392;15.582;2023-03-19T06:06:13;95656.69;;;0.91;81.42
75438;BME280;64015;49.392;15.582;2023-03-19T06:08:39;95663.91;;;0.89;80.97
75438;BME280;64015;49.392;15.582;2023-03-19T06:11:05;95672.63;;;0.94;81.26
75438;BME280;64015;49.392;15.582;2023-03-19T06:13:31;95676.25;;;0.93;83.05
75438;BME280;64015;49.392;15.582;2023-03-19T06:15:56;95671.38;;;1.10;83.59
75438;BME280;64015;49.392;15.582;2023-03-19T06:18:23;95671.53;;;1.40;82.63
75438;BME280;64015;49.392;15.582;2023-03-19T06:20:49;95675.91;;;1.46;82.64
75438;BME280;64015;49.392;15.582;2023-03-19T06:23:15;95683.09;;;1.69;82.10
75438;BME280;64015;49.392;15.582;2023-03-19T06:25:40;95691.22;;;1.97;80.57
75438;BME280;64015;49.392;15.582;2023-03-19T06:28:06;95688.94;;;2.07;80.56
75438;BME280;64015;49.392;15.582;2023-03-19T06:30:33;95690.81;;;2.18;80.46
75438;BME280;64015;49.392;15.582;2023-03-19T06:33:01;95679.41;;;2.38;79.73
75438;BME280;64015;49.392;15.582;2023-03-19T06:35:27;95694.28;;;2.67;79.00
75438;BME280;64015;49.392;15.582;2023-03-19T06:37:53;95691.19;;;2.88;77.47
75438;BME280;64015;49.392;15.582;2023-03-19T06:40:19;95692.03;;;3.00;77.09
75438;BME280;64015;49.392;15.582;2023-03-19T06:42:46;95687.19;;;3.04;76.66
75438;BME280;64015;49.392;15.582;2023-03-19T06:45:13;95688.38;;;3.20;76.56
75438;BME280;64015;49.392;15.582;2023-03-19T06:47:44;95687.03;;;3.29;75.10
75438;BME280;64015;49.392;15.582;2023-03-19T06:50:12;95691.09;;;3.25;75.75
75438;BME280;64015;49.392;15.582;2023-03-19T06:52:39;95690.00;;;3.32;76.36
75438;BME280;64015;49.392;15.582;2023-03-19T06:55:05;95688.78;;;3.47;74.98
75438;BME280;64015;49.392;15.582;2023-03-19T06:57:33;95691.50;;;3.52;75.22
75438;BME280;64015;49.392;15.582;2023-03-19T06:59:59;95691.66;;;3.68;75.46
75438;BME280;64015;49.392;15.582;2023-03-19T07:02:28;95686.41;;;3.80;73.99
75438;BME280;64015;49.392;15.582;2023-03-19T07:04:54;95692.31;;;3.99;74.00
75438;BME280;64015;49.392;15.582;2023-03-19T07:07:20;95698.25;;;4.06;72.99
75438;BME280;64015;49.392;15.582;2023-03-19T07:09:46;95691.06;;;4.13;72.38
75438;BME280;64015;49.392;15.582;2023-03-19T07:12:12;95690.63;;;4.16;72.39
75438;BME280;64015;49.392;15.582;2023-03-19T07:14:37;95689.59;;;4.17;72.26
75438;BME280;64015;49.392;15.582;2023-03-19T07:17:03;95690.28;;;4.24;71.89
75438;BME280;64015;49.392;15.582;2023-03-19T07:19:29;95692.41;;;4.39;71.90
75438;BME280;64015;49.392;15.582;2023-03-19T07:21:57;95690.22;;;4.47;71.85
75438;BME280;64015;49.392;15.582;2023-03-19T07:24:23;95699.78;;;4.54;71.09
75438;BME280;64015;49.392;15.582;2023-03-19T07:26:49;95715.88;;;4.62;69.76
75438;BME280;64015;49.392;15.582;2023-03-19T07:29:15;95715.94;;;4.79;71.34
75438;BME280;64015;49.392;15.582;2023-03-19T07:31:42;95717.75;;;4.90;69.93
75438;BME280;64015;49.392;15.582;2023-03-19T07:34:08;95720.78;;;4.99;70.33
75438;BME280;64015;49.392;15.582;2023-03-19T07:36:34;95727.53;;;5.11;68.69
75438;BME280;64015;49.392;15.582;2023-03-19T07:39:00;95727.41;;;5.18;69.11
75438;BME280;64015;49.392;15.582;2023-03-19T07:41:26;95716.00;;;5.24;68.86
75438;BME280;64015;49.392;15.582;2023-03-19T07:43:51;95708.66;;;5.38;68.25
75438;BME280;64015;49.392;15.582;2023-03-19T07:46:17;95707.31;;;5.35;68.05
75438;BME280;64015;49.392;15.582;2023-03-19T07:48:43;95707.63;;;5.39;68.50
75438;BME280;64015;49.392;15.582;2023-03-19T07:51:09;95714.63;;;5.50;67.48
75438;BME280;64015;49.392;15.582;2023-03-19T07:53:34;95714.34;;;5.63;67.78
75438;BME280;64015;49.392;15.582;2023-03-19T07:56:00;95714.78;;;5.77;66.42
75438;BME280;64015;49.392;15.582;2023-03-19T07:58:26;95719.19;;;6.05;65.85
75438;BME280;64015;49.392;15.582;2023-03-19T08:00:53;95718.56;;;5.97;64.94
75438;BME280;64015;49.392;15.582;2023-03-19T08:03:18;95710.72;;;5.97;64.81
75438;BME280;64015;49.392;15.582;2023-03-19T08:05:47;95719.75;;;5.90;65.16
75438;BME280;64015;49.392;15.582;2023-03-19T08:08:13;95720.31;;;6.09;65.27
75438;BME280;64015;49.392;15.582;2023-03-19T08:10:39;95720.56;;;5.90;64.78
75438;BME280;64015;49.392;15.582;2023-03-19T08:13:05;95726.66;;;5.96;64.84
75438;BME280;64015;49.392;15.582;2023-03-19T08:15:31;95727.84;;;5.88;65.75
75438;BME280;64015;49.392;15.582;2023-03-19T08:18:01;95716.41;;;5.94;64.69
75438;BME280;64015;49.392;15.582;2023-03-19T08:20:28;95724.41;;;6.05;64.74
75438;BME280;64015;49.392;15.582;2023-03-19T08:22:54;95734.50;;;6.13;64.66
75438;BME280;64015;49.392;15.582;2023-03-19T08:25:21;95725.56;;;6.30;64.99
75438;BME280;64015;49.392;15.582;2023-03-19T08:27:47;95710.31;;;6.44;63.93
75438;BME280;64015;49.392;15.582;2023-03-19T08:30:13;95693.75;;;6.60;63.70
75438;BME280;64015;49.392;15.582;2023-03-19T08:32:40;95699.59;;;6.67;63.51
75438;BME280;64015;49.392;15.582;2023-03-19T08:35:06;95694.47;;;6.78;62.52
75438;BME280;64015;49.392;15.582;2023-03-19T08:37:32;95689.97;;;6.95;63.06
75438;BME280;64015;49.392;15.582;2023-03-19T08:39:58;95695.59;;;6.82;62.45
75438;BME280;64015;49.392;15.582;2023-03-19T08:42:23;95702.34;;;6.99;62.18
75438;BME280;64015;49.392;15.582;2023-03-19T08:44:50;95703.03;;;6.90;62.04
75438;BME280;64015;49.392;15.582;2023-03-19T08:47:17;95702.03;;;6.96;61.59
75438;BME280;64015;49.392;15.582;2023-03-19T08:49:43;95694.13;;;6.91;62.79
75438;BME280;64015;49.392;15.582;2023-03-19T08:52:09;95701.09;;;7.07;62.86
75438;BME280;64015;49.392;15.582;2023-03-19T08:54:35;95702.69;;;7.08;62.12
75438;BME280;64015;49.392;15.582;2023-03-19T08:57:01;95710.00;;;7.28;62.23
75438;BME280;64015;49.392;15.582;2023-03-19T08:59:27;95704.59;;;7.39;61.56
75438;BME280;64015;49.392;15.582;2023-03-19T09:01:53;95697.88;;;7.54;61.91
75438;BME280;64015;49.392;15.582;2023-03-19T09:04:20;95711.47;;;7.45;61.49
75438;BME280;64015;49.392;15.582;2023-03-19T09:06:47;95709.25;;;7.59;61.70
75438;BME280;64015;49.392;15.582;2023-03-19T09:09:18;95708.16;;;7.55;60.54
75438;BME280;64015;49.392;15.582;2023-03-19T09:11:43;95713.41;;;7.55;60.97
75438;BME280;64015;49.392;15.582;2023-03-19T09:14:09;95713.19;;;7.62;61.61
75438;BME280;64015;49.392;15.582;2023-03-19T09:16:36;95714.25;;;7.93;61.57
75438;BME280;64015;49.392;15.582;2023-03-19T09:19:02;95718.84;;;8.12;59.85
75438;BME280;64015;49.392;15.582;2023-03-19T09:21:28;95724.56;;;8.04;59.98
75438;BME280;64015;49.392;15.582;2023-03-19T09:23:54;95719.72;;;7.91;59.50
75438;BME280;64015;49.392;15.582;2023-03-19T09:26:19;95716.72;;;8.09;60.68
75438;BME280;64015;49.392;15.582;2023-03-19T09:28:45;95712.25;;;8.10;59.64
75438;BME280;64015;49.392;15.582;2023-03-19T09:31:11;95701.75;;;8.47;59.46
75438;BME280;64015;49.392;15.582;2023-03-19T09:33:37;95706.63;;;8.75;58.43
75438;BME280;64015;49.392;15.582;2023-03-19T09:36:03;95709.53;;;8.79;57.99
75438;BME280;64015;49.392;15.582;2023-03-19T09:38:29;95697.22;;;8.89;57.76
75438;BME280;64015;49.392;15.582;2023-03-19T09:46:18;95685.25;;;9.54;55.59
75438;BME280;64015;49.392;15.582;2023-03-19T09:51:28;95699.75;;;9.72;54.87
75438;BME280;64015;49.392;15.582;2023-03-19T09:54:00;95708.44;;;9.88;54.63
75438;BME280;64015;49.392;15.582;2023-03-19T09:56:26;95708.44;;;10.03;54.32
75438;BME280;64015;49.392;15.582;2023-03-19T09:58:52;95722.66;;;10.02;53.55
75438;BME280;64015;49.392;15.582;2023-03-19T10:01:39;95713.44;;;10.20;52.09
75438;BME280;64015;49.392;15.582;2023-03-19T10:06:53;95725.31;;;10.37;53.15
75438;BME280;64015;49.392;15.582;2023-03-19T10:12:26;95721.00;;;10.72;50.98
75438;BME280;64015;49.392;15.582;2023-03-19T10:17:56;95703.31;;;11.32;48.88
75438;BME280;64015;49.392;15.582;2023-03-19T10:22:51;95705.16;;;10.82;50.29
75438;BME280;64015;49.392;15.582;2023-03-19T10:25:25;95704.50;;;11.05;50.42
75438;BME280;64015;49.392;15.582;2023-03-19T10:27:59;95704.25;;;11.56;49.26
75438;BME280;64015;49.392;15.582;2023-03-19T10:30:27;95704.56;;;11.88;48.43
75438;BME280;64015;49.392;15.582;2023-03-19T10:33:33;95708.91;;;11.25;49.50
75438;BME280;64015;49.392;15.582;2023-03-19T10:36:06;95706.06;;;11.60;48.28
75438;BME280;64015;49.392;15.582;2023-03-19T10:38:39;95705.56;;;11.04;50.78
75438;BME280;64015;49.392;15.582;2023-03-19T10:43:51;95717.41;;;12.34;46.12
75438;BME280;64015;49.392;15.582;2023-03-19T10:46:18;95707.13;;;12.80;46.21
75438;BME280;64015;49.392;15.582;2023-03-19T10:48:50;95695.16;;;13.30;45.19
75438;BME280;64015;49.392;15.582;2023-03-19T10:51:21;95686.63;;;13.15;44.76
75438;BME280;64015;49.392;15.582;2023-03-19T10:53:59;95688.19;;;12.92;45.29
75438;BME280;64015;49.392;15.582;2023-03-19T10:56:28;95690.63;;;12.88;46.22
75438;BME280;64015;49.392;15.582;2023-03-19T10:59:06;95688.28;;;12.34;45.99
75438;BME280;64015;49.392;15.582;2023-03-19T11:01:45;95694.59;;;13.71;44.88
75438;BME280;64015;49.392;15.582;2023-03-19T11:04:21;95689.28;;;12.91;45.55
75438;BME280;64015;49.392;15.582;2023-03-19T11:06:52;95691.19;;;13.84;44.96
75438;BME280;64015;49.392;15.582;2023-03-19T11:09:45;95675.78;;;14.65;41.76
75438;BME280;64015;49.392;15.582;2023-03-19T11:12:31;95675.81;;;16.00;39.77
75438;BME280;64015;49.392;15.582;2023-03-19T11:15:19;95665.28;;;16.48;37.52
75438;BME280;64015;49.392;15.582;2023-03-19T11:17:57;95662.66;;;16.57;36.92
75438;BME280;64015;49.392;15.582;2023-03-19T11:21:23;95669.84;;;16.87;36.71
75438;BME280;64015;49.392;15.582;2023-03-19T11:23:58;95672.34;;;17.92;33.96
75438;BME280;64015;49.392;15.582;2023-03-19T11:26:24;95665.72;;;17.98;35.51
75438;BME280;64015;49.392;15.582;2023-03-19T11:29:01;95652.78;;;18.43;33.34
75438;BME280;64015;49.392;15.582;2023-03-19T11:31:34;95652.03;;;18.17;33.80
75438;BME280;64015;49.392;15.582;2023-03-19T11:34:20;95647.69;;;18.04;35.08
75438;BME280;64015;49.392;15.582;2023-03-19T11:37:30;95655.56;;;17.74;35.43
75438;BME280;64015;49.392;15.582;2023-03-19T11:40:08;95640.03;;;17.68;34.76
75438;BME280;64015;49.392;15.582;2023-03-19T11:50:49;95640.69;;;18.37;34.54
75438;BME280;64015;49.392;15.582;2023-03-19T11:59:11;95635.41;;;18.20;34.76
75438;BME280;64015;49.392;15.582;2023-03-19T12:02:06;95640.59;;;18.16;34.06
75438;BME280;64015;49.392;15.582;2023-03-19T12:13:27;95642.50;;;17.90;34.28
75438;BME280;64015;49.392;15.582;2023-03-19T12:16:12;95650.13;;;18.26;33.80
75438;BME280;64015;49.392;15.582;2023-03-19T12:19:08;95644.88;;;17.92;35.61
75438;BME280;64015;49.392;15.582;2023-03-19T12:22:14;95647.06;;;17.89;34.91
75438;BME280;64015;49.392;15.582;2023-03-19T12:24:49;95641.81;;;18.27;34.80
75438;BME280;64015;49.392;15.582;2023-03-19T12:27:26;95636.75;;;18.43;34.06
75438;BME280;64015;49.392;15.582;2023-03-19T12:30:22;95633.28;;;17.87;35.00
75438;BME280;64015;49.392;15.582;2023-03-19T12:36:16;95628.97;;;18.68;33.84
75438;BME280;64015;49.392;15.582;2023-03-19T12:38:45;95633.56;;;18.50;34.78
75438;BME280;64015;49.392;15.582;2023-03-19T12:41:22;95622.22;;;18.15;34.96
75438;BME280;64015;49.392;15.582;2023-03-19T12:44:23;95625.00;;;18.27;34.46
75438;BME280;64015;49.392;15.582;2023-03-19T12:47:04;95625.09;;;19.15;32.91
75438;BME280;64015;49.392;15.582;2023-03-19T12:49:48;95609.53;;;19.59;31.74
75438;BME280;64015;49.392;15.582;2023-03-19T12:52:30;95613.44;;;19.41;33.73
75438;BME280;64015;49.392;15.582;2023-03-19T12:55:19;95617.59;;;19.29;32.88
75438;BME280;64015;49.392;15.582;2023-03-19T13:00:31;95609.88;;;17.93;34.97
75438;BME280;64015;49.392;15.582;2023-03-19T13:03:27;95607.38;;;17.71;35.32
75438;BME280;64015;49.392;15.582;2023-03-19T13:08:40;95600.22;;;18.94;33.46
75438;BME280;64015;49.392;15.582;2023-03-19T13:14:05;95617.38;;;18.00;35.83
75438;BME280;64015;49.392;15.582;2023-03-19T13:19:29;95610.84;;;18.35;35.03
75438;BME280;64015;49.392;15.582;2023-03-19T13:22:03;95600.78;;;18.41;34.69
75438;BME280;64015;49.392;15.582;2023-03-19T13:24:34;95601.09;;;18.77;34.28
75438;BME280;64015;49.392;15.582;2023-03-19T13:27:03;95605.25;;;19.37;32.73
75438;BME280;64015;49.392;15.582;2023-03-19T13:29:33;95611.69;;;19.45;33.03
75438;BME280;64015;49.392;15.582;2023-03-19T13:32:23;95593.59;;;19.21;32.83
75438;BME280;64015;49.392;15.582;2023-03-19T13:35:18;95605.50;;;19.53;33.13
75438;BME280;64015;49.392;15.582;2023-03-19T13:38:14;95605.63;;;19.35;33.19
75438;BME280;64015;49.392;15.582;2023-03-19T13:40:49;95608.66;;;18.28;34.47
75438;BME280;64015;49.392;15.582;2023-03-19T13:46:03;95599.63;;;18.04;35.50
75438;BME280;64015;49.392;15.582;2023-03-19T13:53:51;95600.16;;;17.71;36.23
75438;BME280;64015;49.392;15.582;2023-03-19T13:56:17;95601.41;;;17.31;37.42
75438;BME280;64015;49.392;15.582;2023-03-19T13:58:51;95601.53;;;16.91;37.39
75438;BME280;64015;49.392;15.582;2023-03-19T14:04:19;95592.56;;;16.78;37.67
75438;BME280;64015;49.392;15.582;2023-03-19T14:06:53;95593.56;;;17.26;36.56
75438;BME280;64015;49.392;15.582;2023-03-19T14:12:36;95593.72;;;17.21;36.99
75438;BME280;64015;49.392;15.582;2023-03-19T14:15:15;95590.28;;;17.29;36.65
75438;BME280;64015;49.392;15.582;2023-03-19T14:18:09;95588.84;;;17.57;36.93
75438;BME280;64015;49.392;15.582;2023-03-19T14:20:58;95593.41;;;17.57;36.21
75438;BME280;64015;49.392;15.582;2023-03-19T14:23:27;95580.09;;;17.13;37.04
75438;BME280;64015;49.392;15.582;2023-03-19T14:26:16;95584.63;;;17.04;36.79